Waco, NC (28169)

8:06 AM EDT on July 24, 2016 (GMT -0400)
lake front Moss Lake | | Change Station

Elev 748 ft 35.31 °N, 81.46 °W | Updated 12 minutes ago

Clear
Clear
74.8 °F
Feels Like 72 °F
N
0.0
Wind Variable Wind from SW

Today
High -- | Low -- °F
--% Chance of Precip.
Yesterday
High -- | Low -- °F
Precip. -- in
Pressure 30.04 in
Visibility 3.0 miles
Clouds Clear
Heat Index 72 °F
Dew Point 74 °F
Humidity 99%
Rainfall 0.00 in
Snow Depth Not available.
6:28 AM 8:35 PM
Waning Gibbous, 77% visible
METAR KEHO 241140Z AUTO 00000KT 3SM BR CLR 22/22 A3004 RMK AO2 T02180218
Pressure 30.04 in
Visibility 3.0 miles
Clouds Clear
Heat Index 72 °F
Dew Point 74 °F
Humidity 99%
Rainfall 0.00 in
Snow Depth Not available.
6:28 AM 8:35 PM
Waning Gibbous, 77% visible
METAR KEHO 241140Z AUTO 00000KT 3SM BR CLR 22/22 A3004 RMK AO2 T02180218

10-Day Weather Forecast

Almanac

Astronomy

Jul. 24, 2016 Rise Set
Actual Time
Civil Twilight
Nautical Twilight
Astronomical Twilight
Moon
Length of Visible Light
Length of Day
Tomorrow will be .
, % of the Moon is Illuminated

Today's Extremes

State Highs State Lows

Community

WunderPhotos

Upload Photos

1,927,050 photos uploaded!

WunderBlog® & News

Nearby

Air Quality

  Air Quality AQ Index Pollutant
Not available.

Snow Depth

Station Depth Elevation

Earthquake Activity

City Distance Mag. Time & Date
Minimum magnitude displayed is 2.5.

Coastal Water Temperatures

Place Temperature

Stations

Nearby Weather Stations

Station Location Temp. Windchill Dew Point Humidity Wind Precip. Elev Updated Type
                   

Watches & Warnings

There are currently no watches in effect.